Flight Track Log - Related Links

Times and Time Zones

All times are in EDT time to prevent confusion due to time zone crossing. See the RPA3161 flight status page for this flight to view local times or setup timezone preferences in your user account.

Time Position Orientation Groundspeed Altitude Reporting Facility
EDT Latitude Longitude Course Direction KTS MPH feet Rate Location/Type
Wed 13:51:55 44.3381 -73.1772 198° South 270 311 5,200  Level Boston Center
Wed 13:52:00 44.0692 -73.2990 195° South  Level FlightAware
Wed 13:52:55 44.2650 -73.2056 196° South 305 351 7,700  Level Boston Center
Wed 13:53:00 43.9688 -73.3327 194° South  Level FlightAware
Wed 13:53:55 44.1856 -73.2392 197° South 297 342 10,000  Level Boston Center
Wed 13:54:00 43.8687 -73.3681 195° South  Level FlightAware
Wed 13:54:55 44.1267 -73.3136 222° Southwest 292 336 12,900  Level Boston Center
Wed 13:55:00 43.7689 -73.4055 195° South  Level FlightAware
Wed 13:55:55 44.0678 -73.3906 223° Southwest 292 336 15,400  Level Boston Center
Wed 13:56:00 43.6692 -73.4428 195° South  Level FlightAware
Wed 13:56:55 44.0047 -73.4675 221° Southwest 297 342 18,100  Level Boston Center
Wed 13:57:00 43.5708 -73.4861 198° South  Level FlightAware
Wed 13:57:55 43.9247 -73.5353 211° Southwest 306 352 20,800  Level Boston Center
Wed 13:58:55 43.8369 -73.5683 195° South 323 372 22,900 2,000 Climbing Boston Center
Wed 13:59:55 43.7450 -73.5925 191° South 341 392 24,800 1,550 Climbing Boston Center
Wed 14:00:55 43.6489 -73.6108 188° South 341 392 26,000 600 Climbing Boston Center
Wed 14:01:55 43.5489 -73.6317 189° South 359 413 26,000  Level Boston Center
Wed 14:02:55 43.4444 -73.6525 188° South 370 426 26,000 500 Level Boston Center
Wed 14:03:55 43.3419 -73.6733 188° South 370 426 27,000 1,250 Climbing Boston Center
Wed 14:04:55 43.2394 -73.6997 191° South 375 432 28,500 1,700 Climbing Boston Center
Wed 14:05:55 43.1350 -73.7233 189° South 375 432 30,400 1,700 Climbing Boston Center
Wed 14:06:55 43.0475 -73.7383 187° South 369 425 31,900 800 Climbing Boston Center
Wed 14:07:55 42.9700 -73.7567 190° South 364 419 32,000 50 Climbing Boston Center
Wed 14:08:55 42.8511 -73.7825 189° South 364 419 32,000  Level Boston Center
Wed 14:09:55 42.7486 -73.8028 188° South 369 425 32,000  Level Boston Center
Wed 14:10:55 42.6444 -73.7922 176° South 375 432 32,000  Level Boston Center
Wed 14:11:55 42.5300 -73.7756 174° South 369 425 32,000  Level Boston Center
Wed 14:12:55 42.4239 -73.7592 173° South 379 436 32,000  Level Boston Center
Wed 14:13:55 42.3408 -73.7489 175° South 379 436 32,000  Level Boston Center
Wed 14:14:55 42.2367 -73.7328 173° South 379 436 32,000  Level Boston Center
Wed 14:15:55 42.1097 -73.7161 174° South 384 442 32,000  Level Boston Center
Wed 14:16:55 42.0156 -73.7644 201° Southwest 359 413 32,000  Level Boston Center
Wed 14:17:55 41.9231 -73.8156 202° Southwest 364 419 32,000  Level Boston Center
Wed 14:19:29 41.7889 -73.8842 201° Southwest 368 423 32,000  Level New Center
Wed 14:20:27 41.6939 -73.9325 201° Southwest 373 429 32,000  Level New Center
Wed 14:21:29 41.5989 -73.9833 202° Southwest 373 429 32,000  Level New Center
Wed 14:22:29 41.5103 -74.0289 201° Southwest 360 414 32,000  Level New Center
Wed 14:23:27 41.4172 -74.0797 202° Southwest 360 414 32,000  Level New Center
Wed 14:24:27 41.3219 -74.1303 202° Southwest 360 414 32,000  Level New Center
Wed 14:25:28 41.2292 -74.1781 201° Southwest 360 414 32,000  Level New Center
Wed 14:26:28 41.1297 -74.2281 201° Southwest 374 430 32,000  Level New Center
Wed 14:27:27 41.0367 -74.2756 201° Southwest 368 423 32,000 -694 Level New Center
Wed 14:28:29 40.9331 -74.3308 202° Southwest 368 423 30,600 -1,623 Descending New Center
Wed 14:29:29 40.8461 -74.3756 201° Southwest 374 430 28,700 -1,322 Descending New Center
Wed 14:30:27 40.7628 -74.4478 213° Southwest 374 430 28,000 -655 Descending New Center
Wed 14:31:28 40.6908 -74.5425 225° Southwest 370 426 27,400 -1,100 Descending New Center
Wed 14:32:27 40.5869 -74.5997 203° Southwest 370 426 25,800 -1,300 Descending New Center
Wed 14:33:28 40.4958 -74.6492 202° Southwest 364 419 24,800 -1,140 Descending New Center
Wed 14:34:28 40.4086 -74.6986 203° Southwest 358 412 23,500 -1,300 Descending New Center
Wed 14:35:28 40.3314 -74.7706 215° Southwest 353 406 22,200 -744 Descending New Center
Wed 14:36:29 40.2922 -74.8772 244° Southwest 328 377 22,000 -98 Descending New Center
Wed 14:37:30 40.2617 -74.9761 248° West 334 384 22,000  Level New Center
Wed 14:38:28 40.2217 -75.0986 247° West 334 384 22,000  Level New Center
Wed 14:39:29 40.1864 -75.2078 247° West 329 379 22,000  Level New Center
Wed 14:40:27 40.1511 -75.3169 247° West 329 379 22,000  Level New Center
Wed 14:41:27 40.1053 -75.4169 239° Southwest 329 379 22,000  Level New Center
Wed 14:42:28 40.0417 -75.5022 226° Southwest 334 384 22,000  Level New Center
Wed 14:43:29 39.9797 -75.5903 227° Southwest 339 390 22,000  Level New Center
Wed 14:44:29 39.9156 -75.6778 226° Southwest 332 382 22,000  Level New Center
Wed 14:45:30 39.8681 -75.7664 235° Southwest 332 382 22,000  Level New Center
Wed 14:46:28 39.8056 -75.8619 230° Southwest 332 382 22,000 -305 Level New Center
Wed 14:47:28 39.7472 -75.9550 231° Southwest 332 382 21,400 -1,190 Descending New Center
Wed 14:48:29 39.6958 -76.0347 230° Southwest 332 382 19,600 -1,866 Descending New Center
Wed 14:49:27 39.6375 -76.1275 231° Southwest 339 390 17,700 -1,888 Descending New Center
Wed 14:50:52 39.5500 -76.2500 227° Southwest 298 343 15,100 -1,685 Descending Potomac TRACON
Wed 14:51:53 39.5000 -76.3333 232° Southwest 286 329 13,600 -1,537 Descending Potomac TRACON
Wed 14:52:53 39.4500 -76.4167 232° Southwest 289 333 12,000 -950 Descending Potomac TRACON
Wed 14:53:53 39.3833 -76.4667 210° Southwest 289 333 11,700 -500 Descending Potomac TRACON
Wed 14:54:53 39.3167 -76.5333 218° Southwest 288 331 11,000 -744 Descending Potomac TRACON
Wed 14:55:54 39.2500 -76.5833 210° Southwest 290 334 10,200 -496 Descending Potomac TRACON
Wed 14:56:54 39.1833 -76.6500 218° Southwest 285 328 10,000 -100 Descending Potomac TRACON
Wed 14:57:54 39.1500 -76.7333 243° Southwest 278 320 10,000 -149 Level Potomac TRACON
Wed 14:58:55 39.1167 -76.8167 243° Southwest 276 318 9,700 -843 Descending Potomac TRACON
Wed 14:59:55 39.0833 -76.9167 247° West 270 311 8,300 -1,050 Descending Potomac TRACON
Wed 15:00:55 39.0667 -77.0000 256° West 257 296 7,600 -700 Descending Potomac TRACON
Wed 15:01:55 39.0500 -77.0833 256° West 238 274 6,900 -600 Descending Potomac TRACON
Wed 15:02:55 39.0333 -77.1500 252° West 189 217 6,400 -850 Descending Potomac TRACON
Wed 15:03:55 39.0000 -77.2000 229° Southwest 175 201 5,200 -1,400 Descending Potomac TRACON
Wed 15:04:55 38.9667 -77.2000 180° South 199 229 3,600 -1,600 Descending Potomac TRACON

Login

Don't have an account? Register now (free) for customized features, flight alerts, and more!